»·PEaware :: N927SM KSRR-KAMA

N927SM :: KSRR-KAMA

FLIGHT INFORMATION

Flight Status: Arrived
Operator: Privately registered:
United States
More flights under this callsign
Pilot: Mark H. (209)
Aircraft: GULFSTREAM 690 COMMANDER 840/900
(AC90)
More flights by this aircraft type
Origin: KSRR Sierra Blanca Regl
United States
Destination: KAMA Amarillo Intl
United States
More flights between these airports :: More routes between these airports
Route: +KAMA
File this flight plan on PilotEdge
Remarks:
Altitude:
(Current/Filed)
17,500ft
Speed:
(Current/Filed)
220kts
Departed: 16-Jul-17 05:03 PM
Arrived: 16-Jul-17 06:08 PM
Distance/Time
Traveled:
217nm/1:05
Distance/Time
To Go:
Arrived

Flight Plot

Page will automatically refresh every two minutes.

Flight plan parsing failed; only flown route is shown


Map Options




Map Legend


Flown Route
Filed Route
Departure Airport
Arrival Airport
Navaid (VOR, NDB)
Fix

Horizontal Profiles

Position Reports

Time Latitude Longitude Heading Altitude Ground
Speed
16-Jul-17 17:05 33.556929 -105.284036 65 13115ft 201kts
16-Jul-17 17:06 33.579590 -105.222611 85 14313ft 202kts
16-Jul-17 17:07 33.549009 -105.168406 131 15549ft 203kts
16-Jul-17 17:08 33.509876 -105.118540 128 16757ft 208kts
16-Jul-17 17:09 33.471085 -105.064775 126 17506ft 222kts
16-Jul-17 17:10 33.432569 -105.005817 123 17501ft 228kts
16-Jul-17 17:11 33.396742 -104.942485 117 17479ft 229kts
16-Jul-17 17:12 33.375232 -104.871143 101 17501ft 231kts
16-Jul-17 17:13 33.362692 -104.795206 98 17499ft 231kts
16-Jul-17 17:14 33.351782 -104.719371 98 17502ft 231kts
16-Jul-17 17:15 33.341165 -104.643453 91 17499ft 231kts
16-Jul-17 17:16 33.360246 -104.571065 63 17500ft 230kts
16-Jul-17 17:17 33.388857 -104.502508 62 17499ft 230kts
16-Jul-17 17:18 33.417887 -104.434176 62 17502ft 230kts
16-Jul-17 17:19 33.446819 -104.365781 62 17500ft 230kts
16-Jul-17 17:20 33.475937 -104.297430 62 17500ft 230kts
16-Jul-17 17:21 33.505034 -104.229076 62 17505ft 230kts
16-Jul-17 17:22 33.534059 -104.160350 62 17504ft 230kts
16-Jul-17 17:23 33.562910 -104.091795 62 17509ft 230kts
16-Jul-17 17:24 33.591680 -104.023201 62 17523ft 230kts
16-Jul-17 17:25 33.620352 -103.954383 62 17505ft 230kts
16-Jul-17 17:26 33.649354 -103.885792 62 17501ft 230kts
16-Jul-17 17:27 33.678048 -103.817416 62 17509ft 228kts
16-Jul-17 17:28 33.706495 -103.749254 62 17513ft 228kts
16-Jul-17 17:29 33.731405 -103.689408 62 17506ft 229kts
16-Jul-17 17:30 33.759714 -103.621096 63 17511ft 228kts
16-Jul-17 17:31 33.787789 -103.553012 63 17516ft 227kts
16-Jul-17 17:32 33.816276 -103.485196 55 17517ft 227kts
16-Jul-17 17:33 33.861988 -103.432723 39 17517ft 229kts
16-Jul-17 17:34 33.912709 -103.385069 38 17500ft 233kts
16-Jul-17 17:35 33.964072 -103.337317 38 17652ft 229kts
16-Jul-17 17:36 34.013817 -103.290981 38 18653ft 224kts
16-Jul-17 17:37 34.063929 -103.244277 37 19142ft 233kts
16-Jul-17 17:39 34.130035 -103.182590 37 19140ft 234kts
16-Jul-17 17:40 34.181645 -103.134457 37 19141ft 234kts
16-Jul-17 17:41 34.233348 -103.086659 37 19139ft 234kts
16-Jul-17 17:42 34.284748 -103.038076 36 19148ft 234kts
16-Jul-17 17:43 34.336335 -102.989785 38 19138ft 235kts
16-Jul-17 17:44 34.387789 -102.941310 37 19144ft 235kts
16-Jul-17 17:45 34.439370 -102.892705 37 19133ft 234kts
16-Jul-17 17:46 34.489873 -102.842750 44 19149ft 234kts
16-Jul-17 17:47 34.532690 -102.782859 51 19139ft 235kts
16-Jul-17 17:48 34.573211 -102.719927 52 18969ft 241kts
16-Jul-17 17:49 34.612947 -102.657781 50 17811ft 230kts
16-Jul-17 17:50 34.652147 -102.596885 51 16308ft 227kts
16-Jul-17 17:51 34.690946 -102.536677 50 14800ft 223kts
16-Jul-17 17:52 34.702970 -102.517923 50 14331ft 220kts
16-Jul-17 17:53 34.741061 -102.458770 50 12830ft 223kts
16-Jul-17 17:54 34.779322 -102.399235 50 11329ft 224kts
16-Jul-17 17:55 34.816060 -102.341984 51 10998ft 208kts
16-Jul-17 17:56 34.866068 -102.302429 28 10025ft 228kts
16-Jul-17 17:57 34.920894 -102.263022 32 8521ft 227kts
16-Jul-17 17:58 34.974052 -102.222652 33 7020ft 221kts
16-Jul-17 17:59 35.024958 -102.183626 34 5717ft 213kts
16-Jul-17 18:00 35.072532 -102.147075 34 5297ft 190kts
16-Jul-17 18:01 35.116552 -102.113110 33 5299ft 185kts
16-Jul-17 18:02 35.147046 -102.069311 87 5312ft 178kts
16-Jul-17 18:03 35.147761 -102.009003 90 5297ft 175kts
16-Jul-17 18:04 35.147009 -101.949962 114 5296ft 172kts
16-Jul-17 18:05 35.115672 -101.906046 134 5299ft 171kts
16-Jul-17 18:06 35.094818 -101.859485 61 5298ft 168kts
16-Jul-17 18:07 35.132385 -101.826022 38 5257ft 162kts
16-Jul-17 18:08 35.166281 -101.795912 45 5097ft 124kts
16-Jul-17 18:09 35.183665 -101.758381 48 4598ft 122kts
16-Jul-17 18:10 35.207599 -101.729437 47 3626ft 110kts
16-Jul-17 18:11 35.212720 -101.720867 132 3610ft 10kts
16-Jul-17 18:12 35.214269 -101.715863 43 3610ft 23kts
16-Jul-17 18:13 35.218230 -101.710403 117 3610ft 19kts
16-Jul-17 18:14 35.217186 -101.708990 223 3610ft 0kts
16-Jul-17 18:15 35.217186 -101.708990 223 3610ft 0kts
16-Jul-17 18:16 35.217186 -101.708990 223 3610ft 0kts
16-Jul-17 18:17 35.217186 -101.708990 223 3610ft 0kts

Navigation Log

Ident Type
Flight plan parsing failed, navigation log unavailable